sensor_id;sensor_type;location;lat;lon;timestamp;pressure;altitude;pressure_sealevel;temperature;humidity
33185;BME280;19550;42.872;25.494;2023-11-19T00:02:25;96018.31;;;2.45;100.00
33185;BME280;19550;42.872;25.494;2023-11-19T00:04:52;96015.56;;;2.39;100.00
33185;BME280;19550;42.872;25.494;2023-11-19T00:07:19;96019.44;;;2.38;100.00
33185;BME280;19550;42.872;25.494;2023-11-19T00:09:47;96010.38;;;2.43;100.00
33185;BME280;19550;42.872;25.494;2023-11-19T00:12:15;96010.09;;;2.39;100.00
33185;BME280;19550;42.872;25.494;2023-11-19T00:14:42;96011.75;;;2.40;100.00
33185;BME280;19550;42.872;25.494;2023-11-19T00:17:09;96000.53;;;2.42;100.00
33185;BME280;19550;42.872;25.494;2023-11-19T00:19:36;96000.56;;;2.37;100.00
33185;BME280;19550;42.872;25.494;2023-11-19T00:22:03;96014.22;;;2.42;100.00
33185;BME280;19550;42.872;25.494;2023-11-19T00:24:30;95999.41;;;2.48;100.00
33185;BME280;19550;42.872;25.494;2023-11-19T00:26:58;96020.47;;;2.53;100.00
33185;BME280;19550;42.872;25.494;2023-11-19T00:29:25;96006.50;;;2.54;100.00
33185;BME280;19550;42.872;25.494;2023-11-19T00:31:52;96005.16;;;2.52;100.00
33185;BME280;19550;42.872;25.494;2023-11-19T00:34:18;96009.22;;;2.64;100.00
33185;BME280;19550;42.872;25.494;2023-11-19T00:36:48;96015.22;;;2.66;100.00
33185;BME280;19550;42.872;25.494;2023-11-19T00:39:15;96014.13;;;2.67;100.00
33185;BME280;19550;42.872;25.494;2023-11-19T00:41:43;96008.63;;;2.67;100.00
33185;BME280;19550;42.872;25.494;2023-11-19T00:44:12;96004.00;;;2.68;100.00
33185;BME280;19550;42.872;25.494;2023-11-19T00:46:39;96007.53;;;2.68;100.00
33185;BME280;19550;42.872;25.494;2023-11-19T00:49:06;96012.47;;;2.71;100.00
33185;BME280;19550;42.872;25.494;2023-11-19T00:51:33;96006.69;;;2.73;100.00
33185;BME280;19550;42.872;25.494;2023-11-19T00:53:59;96002.06;;;2.68;100.00
33185;BME280;19550;42.872;25.494;2023-11-19T00:56:27;95998.47;;;2.73;100.00
33185;BME280;19550;42.872;25.494;2023-11-19T00:58:54;96014.63;;;2.74;100.00
33185;BME280;19550;42.872;25.494;2023-11-19T01:01:22;96009.44;;;2.78;100.00
33185;BME280;19550;42.872;25.494;2023-11-19T01:03:49;96009.66;;;2.82;100.00
33185;BME280;19550;42.872;25.494;2023-11-19T01:06:27;96009.66;;;2.82;100.00
33185;BME280;19550;42.872;25.494;2023-11-19T01:08:53;96005.34;;;2.70;100.00
33185;BME280;19550;42.872;25.494;2023-11-19T01:11:22;96002.63;;;2.70;100.00
33185;BME280;19550;42.872;25.494;2023-11-19T01:13:49;96003.72;;;2.69;100.00
33185;BME280;19550;42.872;25.494;2023-11-19T01:16:16;95993.84;;;2.73;100.00
33185;BME280;19550;42.872;25.494;2023-11-19T01:18:46;95994.66;;;2.79;100.00
33185;BME280;19550;42.872;25.494;2023-11-19T01:21:13;95988.38;;;2.73;100.00
33185;BME280;19550;42.872;25.494;2023-11-19T01:23:41;96005.28;;;2.80;100.00
33185;BME280;19550;42.872;25.494;2023-11-19T01:26:09;96017.06;;;2.81;100.00
33185;BME280;19550;42.872;25.494;2023-11-19T01:28:37;96012.69;;;2.80;100.00
33185;BME280;19550;42.872;25.494;2023-11-19T01:31:05;96013.22;;;2.82;100.00
33185;BME280;19550;42.872;25.494;2023-11-19T01:33:34;96000.34;;;2.88;100.00
33185;BME280;19550;42.872;25.494;2023-11-19T01:36:04;96022.53;;;2.81;100.00
33185;BME280;19550;42.872;25.494;2023-11-19T01:38:31;96021.19;;;2.78;100.00
33185;BME280;19550;42.872;25.494;2023-11-19T01:40:58;96013.50;;;2.80;100.00
33185;BME280;19550;42.872;25.494;2023-11-19T01:43:31;96002.56;;;2.86;100.00
33185;BME280;19550;42.872;25.494;2023-11-19T01:45:58;96010.22;;;2.84;100.00
33185;BME280;19550;42.872;25.494;2023-11-19T01:48:25;96001.19;;;2.83;100.00
33185;BME280;19550;42.872;25.494;2023-11-19T01:50:53;96007.22;;;2.80;100.00
33185;BME280;19550;42.872;25.494;2023-11-19T01:53:21;96003.66;;;2.85;100.00
33185;BME280;19550;42.872;25.494;2023-11-19T01:55:48;95993.84;;;2.78;100.00
33185;BME280;19550;42.872;25.494;2023-11-19T01:58:16;96027.72;;;2.83;100.00
33185;BME280;19550;42.872;25.494;2023-11-19T02:00:44;96005.00;;;2.87;100.00
33185;BME280;19550;42.872;25.494;2023-11-19T02:03:11;96015.13;;;2.87;100.00
33185;BME280;19550;42.872;25.494;2023-11-19T02:05:39;96013.19;;;2.87;100.00
33185;BME280;19550;42.872;25.494;2023-11-19T02:08:06;96019.22;;;2.89;100.00
33185;BME280;19550;42.872;25.494;2023-11-19T02:10:35;96017.28;;;2.95;100.00
33185;BME280;19550;42.872;25.494;2023-11-19T02:13:01;96012.38;;;2.92;100.00
33185;BME280;19550;42.872;25.494;2023-11-19T02:15:30;96009.91;;;2.90;100.00
33185;BME280;19550;42.872;25.494;2023-11-19T02:17:57;96014.28;;;2.91;100.00
33185;BME280;19550;42.872;25.494;2023-11-19T02:20:43;96015.63;;;2.94;100.00
33185;BME280;19550;42.872;25.494;2023-11-19T02:23:11;96004.72;;;2.89;100.00
33185;BME280;19550;42.872;25.494;2023-11-19T02:25:40;96005.22;;;2.96;100.00
33185;BME280;19550;42.872;25.494;2023-11-19T02:28:08;96026.03;;;2.97;100.00
33185;BME280;19550;42.872;25.494;2023-11-19T02:30:37;96024.91;;;3.03;100.00
33185;BME280;19550;42.872;25.494;2023-11-19T02:33:04;96010.97;;;2.94;100.00
33185;BME280;19550;42.872;25.494;2023-11-19T02:35:32;96008.78;;;2.96;100.00
33185;BME280;19550;42.872;25.494;2023-11-19T02:37:59;96031.19;;;3.03;100.00
33185;BME280;19550;42.872;25.494;2023-11-19T02:40:26;96016.72;;;2.98;100.00
33185;BME280;19550;42.872;25.494;2023-11-19T02:42:53;96028.19;;;3.00;100.00
33185;BME280;19550;42.872;25.494;2023-11-19T02:45:23;96025.44;;;3.05;100.00
33185;BME280;19550;42.872;25.494;2023-11-19T02:47:50;96023.53;;;3.00;100.00
33185;BME280;19550;42.872;25.494;2023-11-19T02:50:17;96033.66;;;3.00;100.00
33185;BME280;19550;42.872;25.494;2023-11-19T02:52:51;96031.50;;;2.97;100.00
33185;BME280;19550;42.872;25.494;2023-11-19T02:55:19;96023.84;;;2.94;100.00
33185;BME280;19550;42.872;25.494;2023-11-19T02:57:46;96029.59;;;2.97;100.00
33185;BME280;19550;42.872;25.494;2023-11-19T03:00:15;96023.25;;;3.02;100.00
33185;BME280;19550;42.872;25.494;2023-11-19T03:02:44;96033.94;;;3.03;100.00
33185;BME280;19550;42.872;25.494;2023-11-19T03:05:13;96036.41;;;3.05;100.00
33185;BME280;19550;42.872;25.494;2023-11-19T03:07:41;96033.38;;;3.01;100.00
33185;BME280;19550;42.872;25.494;2023-11-19T03:10:09;96029.28;;;3.04;100.00
33185;BME280;19550;42.872;25.494;2023-11-19T03:12:39;96035.25;;;3.06;100.00
33185;BME280;19550;42.872;25.494;2023-11-19T03:15:07;96046.53;;;3.04;100.00
33185;BME280;19550;42.872;25.494;2023-11-19T03:17:35;96036.16;;;2.96;100.00
33185;BME280;19550;42.872;25.494;2023-11-19T03:20:05;96052.56;;;2.96;100.00
33185;BME280;19550;42.872;25.494;2023-11-19T03:22:36;96038.63;;;2.98;100.00
33185;BME280;19550;42.872;25.494;2023-11-19T03:25:04;96043.50;;;3.01;100.00
33185;BME280;19550;42.872;25.494;2023-11-19T03:27:33;96065.16;;;2.97;100.00
33185;BME280;19550;42.872;25.494;2023-11-19T03:30:01;96062.66;;;3.06;100.00
33185;BME280;19550;42.872;25.494;2023-11-19T03:32:29;96048.16;;;3.05;100.00
33185;BME280;19550;42.872;25.494;2023-11-19T03:34:56;96081.00;;;3.05;100.00
33185;BME280;19550;42.872;25.494;2023-11-19T03:37:25;96090.31;;;3.04;100.00
33185;BME280;19550;42.872;25.494;2023-11-19T03:39:52;96081.53;;;3.07;100.00
33185;BME280;19550;42.872;25.494;2023-11-19T03:42:19;96090.31;;;3.04;100.00
33185;BME280;19550;42.872;25.494;2023-11-19T03:44:47;96075.31;;;2.97;100.00
33185;BME280;19550;42.872;25.494;2023-11-19T03:47:14;96082.66;;;3.01;100.00
33185;BME280;19550;42.872;25.494;2023-11-19T03:49:41;96086.22;;;3.02;100.00
33185;BME280;19550;42.872;25.494;2023-11-19T03:52:09;96074.81;;;2.85;100.00
33185;BME280;19550;42.872;25.494;2023-11-19T03:54:37;96095.28;;;2.97;100.00
33185;BME280;19550;42.872;25.494;2023-11-19T03:57:04;96095.78;;;2.99;100.00
33185;BME280;19550;42.872;25.494;2023-11-19T03:59:31;96105.66;;;3.00;100.00
33185;BME280;19550;42.872;25.494;2023-11-19T04:01:59;96109.47;;;2.99;100.00
33185;BME280;19550;42.872;25.494;2023-11-19T04:04:28;96098.88;;;2.88;100.00
33185;BME280;19550;42.872;25.494;2023-11-19T04:06:55;96108.94;;;3.02;100.00
33185;BME280;19550;42.872;25.494;2023-11-19T04:09:23;96109.47;;;2.99;100.00
33185;BME280;19550;42.872;25.494;2023-11-19T04:11:51;96109.47;;;2.99;100.00
33185;BME280;19550;42.872;25.494;2023-11-19T04:14:18;96135.78;;;3.05;100.00
33185;BME280;19550;42.872;25.494;2023-11-19T04:16:45;96093.16;;;2.79;100.00
33185;BME280;19550;42.872;25.494;2023-11-19T04:19:12;96118.53;;;2.95;100.00
33185;BME280;19550;42.872;25.494;2023-11-19T04:21:40;96128.06;;;3.07;100.00
33185;BME280;19550;42.872;25.494;2023-11-19T04:24:08;96113.66;;;2.92;100.00
33185;BME280;19550;42.872;25.494;2023-11-19T04:26:40;96123.47;;;2.93;100.00
33185;BME280;19550;42.872;25.494;2023-11-19T04:29:08;96127.84;;;3.04;100.00
33185;BME280;19550;42.872;25.494;2023-11-19T04:31:36;96124.81;;;3.00;100.00
33185;BME280;19550;42.872;25.494;2023-11-19T04:34:03;96084.69;;;2.75;100.00
33185;BME280;19550;42.872;25.494;2023-11-19T04:36:30;96135.53;;;2.97;100.00
33185;BME280;19550;42.872;25.494;2023-11-19T04:38:58;96148.34;;;3.01;100.00
33185;BME280;19550;42.872;25.494;2023-11-19T04:41:26;96144.78;;;3.06;100.00
33185;BME280;19550;42.872;25.494;2023-11-19T04:43:53;96147.78;;;3.09;100.00
33185;BME280;19550;42.872;25.494;2023-11-19T04:46:22;96149.44;;;3.00;100.00
33185;BME280;19550;42.872;25.494;2023-11-19T04:48:49;96113.69;;;2.76;100.00
33185;BME280;19550;42.872;25.494;2023-11-19T04:51:16;96159.06;;;2.98;100.00
33185;BME280;19550;42.872;25.494;2023-11-19T04:53:43;96168.38;;;2.97;100.00
33185;BME280;19550;42.872;25.494;2023-11-19T04:56:11;96167.25;;;3.03;100.00
33185;BME280;19550;42.872;25.494;2023-11-19T04:58:38;96183.09;;;3.06;100.00
33185;BME280;19550;42.872;25.494;2023-11-19T05:01:06;96189.41;;;3.01;100.00
33185;BME280;19550;42.872;25.494;2023-11-19T05:03:34;96171.09;;;3.02;100.00
33185;BME280;19550;42.872;25.494;2023-11-19T05:06:01;96169.41;;;3.06;100.00
33185;BME280;19550;42.872;25.494;2023-11-19T05:08:28;96157.97;;;2.89;100.00
33185;BME280;19550;42.872;25.494;2023-11-19T05:10:55;96182.59;;;3.04;100.00
33185;BME280;19550;42.872;25.494;2023-11-19T05:13:23;96138.34;;;2.71;100.00
33185;BME280;19550;42.872;25.494;2023-11-19T05:15:50;96194.06;;;3.01;100.00
33185;BME280;19550;42.872;25.494;2023-11-19T05:18:16;96174.38;;;3.04;100.00
33185;BME280;19550;42.872;25.494;2023-11-19T05:20:45;96188.31;;;3.07;100.00
33185;BME280;19550;42.872;25.494;2023-11-19T05:23:12;96191.31;;;3.06;100.00
33185;BME280;19550;42.872;25.494;2023-11-19T05:25:39;96206.34;;;3.13;100.00
33185;BME280;19550;42.872;25.494;2023-11-19T05:28:06;96158.53;;;2.80;100.00
33185;BME280;19550;42.872;25.494;2023-11-19T05:30:33;96200.09;;;3.03;100.00
33185;BME280;19550;42.872;25.494;2023-11-19T05:33:00;96226.38;;;3.04;100.00
33185;BME280;19550;42.872;25.494;2023-11-19T05:35:27;96223.66;;;2.99;100.00
33185;BME280;19550;42.872;25.494;2023-11-19T05:37:55;96225.81;;;3.07;100.00
33185;BME280;19550;42.872;25.494;2023-11-19T05:40:22;96217.59;;;3.07;100.00
33185;BME280;19550;42.872;25.494;2023-11-19T05:42:49;96208.88;;;3.05;100.00
33185;BME280;19550;42.872;25.494;2023-11-19T05:45:16;96190.81;;;2.94;100.00
33185;BME280;19550;42.872;25.494;2023-11-19T05:47:42;96181.00;;;2.83;100.00
33185;BME280;19550;42.872;25.494;2023-11-19T05:50:11;96179.91;;;2.84;100.00
33185;BME280;19550;42.872;25.494;2023-11-19T05:52:40;96220.63;;;3.10;100.00
33185;BME280;19550;42.872;25.494;2023-11-19T05:55:09;96217.34;;;3.03;100.00
33185;BME280;19550;42.872;25.494;2023-11-19T05:57:36;96212.69;;;3.04;100.00
33185;BME280;19550;42.872;25.494;2023-11-19T06:00:04;96224.44;;;3.09;100.00
33185;BME280;19550;42.872;25.494;2023-11-19T06:02:33;96225.53;;;3.13;100.00
33185;BME280;19550;42.872;25.494;2023-11-19T06:05:03;96218.41;;;3.17;100.00
33185;BME280;19550;42.872;25.494;2023-11-19T06:07:31;96234.88;;;3.12;100.00
33185;BME280;19550;42.872;25.494;2023-11-19T06:10:01;96227.47;;;3.08;100.00
33185;BME280;19550;42.872;25.494;2023-11-19T06:12:30;96209.97;;;3.04;100.00
33185;BME280;19550;42.872;25.494;2023-11-19T06:14:57;96205.84;;;3.06;100.00
33185;BME280;19550;42.872;25.494;2023-11-19T06:17:24;96242.78;;;3.19;100.00
33185;BME280;19550;42.872;25.494;2023-11-19T06:19:51;96241.69;;;3.25;100.00
33185;BME280;19550;42.872;25.494;2023-11-19T06:22:18;96220.06;;;3.18;100.00
33185;BME280;19550;42.872;25.494;2023-11-19T06:24:45;96231.00;;;3.13;100.00
33185;BME280;19550;42.872;25.494;2023-11-19T06:27:13;96236.50;;;3.18;100.00
33185;BME280;19550;42.872;25.494;2023-11-19T06:29:43;96249.59;;;3.27;100.00
33185;BME280;19550;42.872;25.494;2023-11-19T06:32:10;96251.78;;;3.30;100.00
33185;BME280;19550;42.872;25.494;2023-11-19T06:34:37;96242.47;;;3.20;100.00
33185;BME280;19550;42.872;25.494;2023-11-19T06:37:04;96248.25;;;3.24;100.00
33185;BME280;19550;42.872;25.494;2023-11-19T06:39:31;96240.00;;;3.34;100.00
33185;BME280;19550;42.872;25.494;2023-11-19T06:42:00;96233.69;;;3.34;100.00
33185;BME280;19550;42.872;25.494;2023-11-19T06:44:27;96252.03;;;3.43;100.00
33185;BME280;19550;42.872;25.494;2023-11-19T06:46:55;96235.63;;;3.28;100.00
33185;BME280;19550;42.872;25.494;2023-11-19T06:49:22;96265.44;;;3.40;100.00
33185;BME280;19550;42.872;25.494;2023-11-19T06:51:50;96261.88;;;3.44;100.00
33185;BME280;19550;42.872;25.494;2023-11-19T06:54:16;96251.75;;;3.35;100.00
33185;BME280;19550;42.872;25.494;2023-11-19T06:56:43;96271.75;;;3.40;100.00
33185;BME280;19550;42.872;25.494;2023-11-19T06:59:10;96239.47;;;3.27;100.00
33185;BME280;19550;42.872;25.494;2023-11-19T07:01:37;96245.75;;;3.38;100.00
33185;BME280;19550;42.872;25.494;2023-11-19T07:04:06;96259.72;;;3.36;100.00
33185;BME280;19550;42.872;25.494;2023-11-19T07:06:34;96270.94;;;3.35;100.00
33185;BME280;19550;42.872;25.494;2023-11-19T07:09:02;96282.16;;;3.33;100.00
33185;BME280;19550;42.872;25.494;2023-11-19T07:11:36;96260.28;;;3.28;100.00
33185;BME280;19550;42.872;25.494;2023-11-19T07:14:04;96267.88;;;3.46;100.00
33185;BME280;19550;42.872;25.494;2023-11-19T07:16:31;96261.34;;;3.37;100.00
33185;BME280;19550;42.872;25.494;2023-11-19T07:18:59;96286.22;;;3.56;100.00
33185;BME280;19550;42.872;25.494;2023-11-19T07:21:28;96256.41;;;3.44;100.00
33185;BME280;19550;42.872;25.494;2023-11-19T07:23:54;96290.91;;;3.50;100.00
33185;BME280;19550;42.872;25.494;2023-11-19T07:26:22;96288.16;;;3.50;100.00
33185;BME280;19550;42.872;25.494;2023-11-19T07:28:49;96304.63;;;3.45;100.00
33185;BME280;19550;42.872;25.494;2023-11-19T07:31:16;96313.91;;;3.54;100.00
33185;BME280;19550;42.872;25.494;2023-11-19T07:33:45;96300.69;;;3.67;100.00
33185;BME280;19550;42.872;25.494;2023-11-19T07:36:13;96298.81;;;3.62;100.00
33185;BME280;19550;42.872;25.494;2023-11-19T07:38:41;96312.19;;;3.74;100.00
33185;BME280;19550;42.872;25.494;2023-11-19T07:41:08;96334.41;;;3.77;100.00
33185;BME280;19550;42.872;25.494;2023-11-19T07:43:39;96323.41;;;3.82;100.00
33185;BME280;19550;42.872;25.494;2023-11-19T07:46:10;96351.88;;;3.96;100.00
33185;BME280;19550;42.872;25.494;2023-11-19T07:48:38;96338.50;;;3.75;100.00
33185;BME280;19550;42.872;25.494;2023-11-19T07:51:06;96337.44;;;3.66;100.00
33185;BME280;19550;42.872;25.494;2023-11-19T07:53:33;96354.13;;;3.74;100.00
33185;BME280;19550;42.872;25.494;2023-11-19T07:56:01;96359.31;;;3.81;100.00
33185;BME280;19550;42.872;25.494;2023-11-19T07:58:28;96344.78;;;3.80;100.00
33185;BME280;19550;42.872;25.494;2023-11-19T08:00:55;96344.78;;;3.85;100.00
33185;BME280;19550;42.872;25.494;2023-11-19T08:03:21;96329.75;;;3.68;100.00
33185;BME280;19550;42.872;25.494;2023-11-19T08:05:49;96322.66;;;3.62;100.00
33185;BME280;19550;42.872;25.494;2023-11-19T08:08:16;96365.00;;;4.05;100.00
33185;BME280;19550;42.872;25.494;2023-11-19T08:10:43;96344.50;;;3.92;100.00
33185;BME280;19550;42.872;25.494;2023-11-19T08:13:12;96375.69;;;4.11;100.00
33185;BME280;19550;42.872;25.494;2023-11-19T08:15:38;96364.97;;;4.10;100.00
33185;BME280;19550;42.872;25.494;2023-11-19T08:18:05;96354.81;;;4.15;100.00
33185;BME280;19550;42.872;25.494;2023-11-19T08:20:32;96352.28;;;4.29;100.00
33185;BME280;19550;42.872;25.494;2023-11-19T08:22:59;96350.59;;;4.33;100.00
33185;BME280;19550;42.872;25.494;2023-11-19T08:25:26;96350.97;;;4.16;100.00
33185;BME280;19550;42.872;25.494;2023-11-19T08:27:55;96350.94;;;4.21;100.00
33185;BME280;19550;42.872;25.494;2023-11-19T08:30:23;96354.19;;;4.28;100.00
33185;BME280;19550;42.872;25.494;2023-11-19T08:32:50;96358.81;;;4.38;100.00
33185;BME280;19550;42.872;25.494;2023-11-19T08:35:17;96353.03;;;4.45;100.00
33185;BME280;19550;42.872;25.494;2023-11-19T08:37:45;96286.00;;;4.12;100.00
33185;BME280;19550;42.872;25.494;2023-11-19T08:40:12;96287.34;;;4.14;100.00
33185;BME280;19550;42.872;25.494;2023-11-19T08:42:41;96287.88;;;4.16;100.00
33185;BME280;19550;42.872;25.494;2023-11-19T08:45:09;96277.97;;;4.25;100.00
33185;BME280;19550;42.872;25.494;2023-11-19T08:47:38;96346.50;;;4.74;100.00
33185;BME280;19550;42.872;25.494;2023-11-19T08:50:06;96346.19;;;4.81;100.00
33185;BME280;19550;42.872;25.494;2023-11-19T08:52:33;96284.75;;;4.33;100.00
33185;BME280;19550;42.872;25.494;2023-11-19T08:55:01;96313.34;;;4.66;100.00
33185;BME280;19550;42.872;25.494;2023-11-19T08:57:28;96314.72;;;4.68;100.00
33185;BME280;19550;42.872;25.494;2023-11-19T08:59:55;96340.56;;;5.01;100.00
33185;BME280;19550;42.872;25.494;2023-11-19T09:02:22;96336.41;;;5.04;100.00
33185;BME280;19550;42.872;25.494;2023-11-19T09:04:50;96318.69;;;4.86;100.00
33185;BME280;19550;42.872;25.494;2023-11-19T09:07:17;96320.00;;;4.94;99.95
33185;BME280;19550;42.872;25.494;2023-11-19T09:09:44;96334.13;;;5.16;99.63
33185;BME280;19550;42.872;25.494;2023-11-19T09:12:11;96341.25;;;5.17;99.47
33185;BME280;19550;42.872;25.494;2023-11-19T09:14:39;96334.81;;;5.32;98.86
33185;BME280;19550;42.872;25.494;2023-11-19T09:17:07;96309.81;;;5.28;97.54
33185;BME280;19550;42.872;25.494;2023-11-19T09:19:34;96326.75;;;5.40;97.25
33185;BME280;19550;42.872;25.494;2023-11-19T09:22:03;96317.84;;;5.25;96.92
33185;BME280;19550;42.872;25.494;2023-11-19T09:24:30;96322.66;;;5.38;97.91
33185;BME280;19550;42.872;25.494;2023-11-19T09:26:57;96303.56;;;5.23;97.79
33185;BME280;19550;42.872;25.494;2023-11-19T09:29:23;96317.03;;;5.48;97.18
33185;BME280;19550;42.872;25.494;2023-11-19T09:31:50;96317.09;;;5.43;96.08
33185;BME280;19550;42.872;25.494;2023-11-19T09:34:17;96317.75;;;5.58;96.96
33185;BME280;19550;42.872;25.494;2023-11-19T09:36:44;96322.19;;;5.83;96.08
33185;BME280;19550;42.872;25.494;2023-11-19T09:39:12;96263.34;;;5.79;97.84
33185;BME280;19550;42.872;25.494;2023-11-19T09:41:43;96309.25;;;6.31;94.58
33185;BME280;19550;42.872;25.494;2023-11-19T09:44:10;96275.69;;;6.29;92.61
33185;BME280;19550;42.872;25.494;2023-11-19T09:46:38;96308.63;;;6.72;92.55
33185;BME280;19550;42.872;25.494;2023-11-19T09:49:08;96318.63;;;6.68;90.61
33185;BME280;19550;42.872;25.494;2023-11-19T09:51:35;96254.66;;;5.96;92.48
33185;BME280;19550;42.872;25.494;2023-11-19T09:54:03;96263.00;;;5.91;92.87
33185;BME280;19550;42.872;25.494;2023-11-19T09:56:33;96306.69;;;6.16;93.35
33185;BME280;19550;42.872;25.494;2023-11-19T09:59:02;96325.69;;;6.36;92.40
33185;BME280;19550;42.872;25.494;2023-11-19T10:01:29;96305.94;;;6.29;91.88
33185;BME280;19550;42.872;25.494;2023-11-19T10:03:57;96333.34;;;6.58;91.90
33185;BME280;19550;42.872;25.494;2023-11-19T10:06:25;96327.53;;;6.60;91.69
33185;BME280;19550;42.872;25.494;2023-11-19T10:08:53;96335.66;;;6.51;92.12
33185;BME280;19550;42.872;25.494;2023-11-19T10:11:20;96282.75;;;6.35;90.63
33185;BME280;19550;42.872;25.494;2023-11-19T10:13:49;96326.53;;;6.32;90.88
33185;BME280;19550;42.872;25.494;2023-11-19T10:16:17;96309.91;;;5.99;91.20
33185;BME280;19550;42.872;25.494;2023-11-19T10:18:45;96329.34;;;6.08;94.02
33185;BME280;19550;42.872;25.494;2023-11-19T10:21:13;96314.72;;;5.89;92.85
33185;BME280;19550;42.872;25.494;2023-11-19T10:23:49;96322.59;;;5.95;92.66
33185;BME280;19550;42.872;25.494;2023-11-19T10:26:17;96329.47;;;5.98;92.91
33185;BME280;19550;42.872;25.494;2023-11-19T10:28:46;96342.53;;;6.11;93.17
33185;BME280;19550;42.872;25.494;2023-11-19T10:31:14;96326.38;;;6.05;93.12
33185;BME280;19550;42.872;25.494;2023-11-19T10:33:42;96306.78;;;5.82;92.15
33185;BME280;19550;42.872;25.494;2023-11-19T10:36:10;96326.94;;;6.02;92.73
33185;BME280;19550;42.872;25.494;2023-11-19T10:38:38;96309.78;;;6.10;93.01
33185;BME280;19550;42.872;25.494;2023-11-19T10:41:05;96302.59;;;5.90;90.94
33185;BME280;19550;42.872;25.494;2023-11-19T10:43:42;96325.28;;;6.01;92.07
33185;BME280;19550;42.872;25.494;2023-11-19T10:46:11;96320.78;;;6.10;92.58
33185;BME280;19550;42.872;25.494;2023-11-19T10:48:40;96321.09;;;6.27;92.96
33185;BME280;19550;42.872;25.494;2023-11-19T10:51:07;96326.88;;;6.49;91.04
33185;BME280;19550;42.872;25.494;2023-11-19T10:53:36;96304.94;;;6.44;90.04
33185;BME280;19550;42.872;25.494;2023-11-19T10:56:06;96322.19;;;6.68;91.49
33185;BME280;19550;42.872;25.494;2023-11-19T10:58:36;96315.75;;;6.92;88.38
33185;BME280;19550;42.872;25.494;2023-11-19T11:01:09;96315.53;;;7.07;86.62
33185;BME280;19550;42.872;25.494;2023-11-19T11:03:41;96306.34;;;7.11;87.63
33185;BME280;19550;42.872;25.494;2023-11-19T11:06:09;96325.00;;;7.33;86.15
33185;BME280;19550;42.872;25.494;2023-11-19T11:08:37;96319.41;;;7.71;84.55
33185;BME280;19550;42.872;25.494;2023-11-19T11:11:05;96293.84;;;8.06;83.22
33185;BME280;19550;42.872;25.494;2023-11-19T11:13:37;96304.84;;;8.61;81.35
33185;BME280;19550;42.872;25.494;2023-11-19T11:16:08;96309.13;;;8.31;77.30
33185;BME280;19550;42.872;25.494;2023-11-19T11:18:36;96284.25;;;7.90;79.67
33185;BME280;19550;42.872;25.494;2023-11-19T11:21:09;96313.78;;;7.76;79.49
33185;BME280;19550;42.872;25.494;2023-11-19T11:24:14;96297.44;;;7.33;80.95
33185;BME280;19550;42.872;25.494;2023-11-19T11:27:08;96312.28;;;7.18;82.99
33185;BME280;19550;42.872;25.494;2023-11-19T11:29:43;96315.72;;;7.29;82.12
33185;BME280;19550;42.872;25.494;2023-11-19T11:32:21;96296.91;;;7.64;80.58
33185;BME280;19550;42.872;25.494;2023-11-19T11:35:01;96323.72;;;8.31;79.79
33185;BME280;19550;42.872;25.494;2023-11-19T11:37:39;96283.03;;;8.37;78.67
33185;BME280;19550;42.872;25.494;2023-11-19T11:40:14;96266.53;;;8.18;77.18
33185;BME280;19550;42.872;25.494;2023-11-19T11:42:41;96274.94;;;8.41;77.20
33185;BME280;19550;42.872;25.494;2023-11-19T11:45:09;96297.97;;;8.72;75.21
33185;BME280;19550;42.872;25.494;2023-11-19T11:48:10;96318.22;;;8.81;76.63
33185;BME280;19550;42.872;25.494;2023-11-19T11:51:01;96321.97;;;8.49;76.24
33185;BME280;19550;42.872;25.494;2023-11-19T11:53:30;96301.63;;;8.31;76.94
33185;BME280;19550;42.872;25.494;2023-11-19T11:55:58;96312.97;;;8.03;78.24
33185;BME280;19550;42.872;25.494;2023-11-19T11:58:35;96284.97;;;7.82;79.21
33185;BME280;19550;42.872;25.494;2023-11-19T12:01:04;96273.38;;;7.52;80.29
33185;BME280;19550;42.872;25.494;2023-11-19T12:03:37;96267.13;;;7.33;81.53
33185;BME280;19550;42.872;25.494;2023-11-19T12:06:04;96297.97;;;7.35;81.60
33185;BME280;19550;42.872;25.494;2023-11-19T12:08:35;96273.66;;;7.05;83.53
33185;BME280;19550;42.872;25.494;2023-11-19T12:11:02;96249.22;;;6.85;82.84
33185;BME280;19550;42.872;25.494;2023-11-19T12:13:47;96272.94;;;6.99;82.97
33185;BME280;19550;42.872;25.494;2023-11-19T12:16:15;96248.13;;;6.67;83.15
33185;BME280;19550;42.872;25.494;2023-11-19T12:18:42;96265.00;;;6.79;83.07
33185;BME280;19550;42.872;25.494;2023-11-19T12:21:09;96289.84;;;6.93;83.36
33185;BME280;19550;42.872;25.494;2023-11-19T12:23:46;96307.97;;;6.80;83.71
33185;BME280;19550;42.872;25.494;2023-11-19T12:26:32;96307.22;;;6.74;83.66
33185;BME280;19550;42.872;25.494;2023-11-19T12:29:00;96308.94;;;6.70;83.92
33185;BME280;19550;42.872;25.494;2023-11-19T12:31:28;96306.34;;;6.60;84.63
33185;BME280;19550;42.872;25.494;2023-11-19T12:33:55;96281.25;;;6.43;84.57
33185;BME280;19550;42.872;25.494;2023-11-19T12:36:22;96294.41;;;6.46;86.09
33185;BME280;19550;42.872;25.494;2023-11-19T12:38:51;96275.69;;;6.29;84.94
33185;BME280;19550;42.872;25.494;2023-11-19T12:41:18;96269.06;;;6.30;85.52
33185;BME280;19550;42.872;25.494;2023-11-19T12:43:49;96285.22;;;6.37;85.63
33185;BME280;19550;42.872;25.494;2023-11-19T12:46:20;96276.56;;;6.44;85.82
33185;BME280;19550;42.872;25.494;2023-11-19T12:48:47;96280.19;;;6.39;84.98
33185;BME280;19550;42.872;25.494;2023-11-19T12:51:14;96277.41;;;6.44;85.46
33185;BME280;19550;42.872;25.494;2023-11-19T12:53:48;96274.94;;;6.43;85.23
33185;BME280;19550;42.872;25.494;2023-11-19T12:56:17;96267.25;;;6.39;84.99
33185;BME280;19550;42.872;25.494;2023-11-19T12:58:44;96251.06;;;6.38;85.34
33185;BME280;19550;42.872;25.494;2023-11-19T13:01:16;96247.63;;;6.46;86.13